createdAt,value
2022-12-29T00:01:16.291Z,1.60
2022-12-29T00:03:44.916Z,1.47
2022-12-29T00:06:13.242Z,1.70
2022-12-29T00:08:41.759Z,1.73
2022-12-29T00:11:11.565Z,1.50
2022-12-29T00:13:58.097Z,1.60
2022-12-29T00:16:28.531Z,1.77
2022-12-29T00:18:56.895Z,1.83
2022-12-29T00:21:43.672Z,1.60
2022-12-29T00:24:32.708Z,1.50
2022-12-29T00:27:29.603Z,1.40
2022-12-29T00:30:15.641Z,1.47
2022-12-29T00:33:02.897Z,1.40
2022-12-29T00:35:33.911Z,1.37
2022-12-29T00:38:22.878Z,1.30
2022-12-29T00:41:08.608Z,1.23
2022-12-29T00:43:54.139Z,1.10
2022-12-29T00:46:22.861Z,1.27
2022-12-29T00:49:09.755Z,1.10
2022-12-29T00:51:38.373Z,1.00
2022-12-29T00:54:06.525Z,1.00
2022-12-29T00:56:35.345Z,0.90
2022-12-29T00:59:04.170Z,0.60
2022-12-29T01:01:32.767Z,0.70
2022-12-29T01:04:04.556Z,0.70
2022-12-29T01:06:33.781Z,0.73
2022-12-29T01:09:19.310Z,0.90
2022-12-29T01:11:48.068Z,0.80
2022-12-29T01:14:16.786Z,0.83
2022-12-29T01:16:46.851Z,1.40
2022-12-29T01:19:17.168Z,1.50
2022-12-29T01:21:46.866Z,1.70
2022-12-29T01:24:15.557Z,1.70
2022-12-29T01:26:43.774Z,2.03
2022-12-29T01:29:12.135Z,2.30
2022-12-29T01:31:40.490Z,2.50
2022-12-29T01:34:09.300Z,2.80
2022-12-29T01:36:38.818Z,2.97
2022-12-29T01:39:06.989Z,3.40
2022-12-29T01:41:35.647Z,4.10
2022-12-29T01:44:04.074Z,4.43
2022-12-29T01:46:36.043Z,4.40
2022-12-29T01:49:12.762Z,4.43
2022-12-29T01:51:46.083Z,3.73
2022-12-29T01:54:19.174Z,4.00
2022-12-29T01:56:48.200Z,3.63
2022-12-29T01:59:22.533Z,3.90
2022-12-29T02:01:51.289Z,2.97
2022-12-29T02:04:20.436Z,3.03
2022-12-29T02:06:54.865Z,3.30
2022-12-29T02:09:24.624Z,2.60
2022-12-29T02:11:54.156Z,2.70
2022-12-29T02:14:22.428Z,2.40
2022-12-29T02:17:08.690Z,2.40
2022-12-29T02:20:16.361Z,2.50
2022-12-29T02:22:58.037Z,2.70
2022-12-29T02:25:46.961Z,3.00
2022-12-29T02:29:03.801Z,2.60
2022-12-29T02:31:44.105Z,2.40
2022-12-29T02:34:24.592Z,2.20
2022-12-29T02:37:02.756Z,2.10
2022-12-29T02:39:40.396Z,1.70
2022-12-29T02:42:16.190Z,1.57
2022-12-29T02:44:57.088Z,1.60
2022-12-29T02:47:36.033Z,1.37
2022-12-29T02:50:09.030Z,1.13
2022-12-29T02:52:41.419Z,1.20
2022-12-29T02:55:08.831Z,1.10
2022-12-29T02:57:37.406Z,1.07
2022-12-29T03:00:09.685Z,1.30
2022-12-29T03:03:18.896Z,0.80
2022-12-29T03:06:09.677Z,0.80
2022-12-29T03:08:48.414Z,0.87
2022-12-29T03:11:31.097Z,0.80
2022-12-29T03:14:21.785Z,0.70
2022-12-29T03:16:54.584Z,0.80
2022-12-29T03:19:27.435Z,0.70
2022-12-29T03:22:17.399Z,0.80
2022-12-29T03:24:50.014Z,0.70
2022-12-29T03:27:22.352Z,0.60
2022-12-29T03:29:55.435Z,0.80
2022-12-29T03:32:25.949Z,0.73
2022-12-29T03:34:56.928Z,0.50
2022-12-29T03:37:28.541Z,0.53
2022-12-29T03:39:57.111Z,0.60
2022-12-29T03:42:29.914Z,0.60
2022-12-29T03:44:59.057Z,0.60
2022-12-29T03:47:27.855Z,0.40
2022-12-29T03:49:57.343Z,0.50
2022-12-29T03:52:25.781Z,0.50
2022-12-29T03:54:53.995Z,0.37
2022-12-29T03:57:22.274Z,0.43
2022-12-29T03:59:50.601Z,0.30
2022-12-29T04:02:18.906Z,0.30
2022-12-29T04:04:48.850Z,0.27
2022-12-29T04:07:18.716Z,0.30
2022-12-29T04:09:46.966Z,0.30
2022-12-29T04:12:15.637Z,0.30
2022-12-29T04:14:43.952Z,0.40
2022-12-29T04:17:12.129Z,0.30
2022-12-29T04:19:40.267Z,0.20
2022-12-29T04:22:07.452Z,0.20
2022-12-29T04:24:37.020Z,0.30
2022-12-29T04:27:05.549Z,0.27
2022-12-29T04:29:34.037Z,0.20
2022-12-29T04:32:02.412Z,0.17
2022-12-29T04:34:30.642Z,0.30
2022-12-29T04:36:59.028Z,0.60
2022-12-29T04:39:27.309Z,0.63
2022-12-29T04:41:56.871Z,0.70
2022-12-29T04:44:25.354Z,0.80
2022-12-29T04:46:53.585Z,1.00
2022-12-29T04:49:21.775Z,1.00
2022-12-29T04:51:50.160Z,1.20
2022-12-29T04:54:18.479Z,1.50
2022-12-29T04:56:46.886Z,1.50
2022-12-29T04:59:16.959Z,1.40
2022-12-29T05:01:45.747Z,1.40
2022-12-29T05:04:14.694Z,1.60
2022-12-29T05:06:43.119Z,1.60
2022-12-29T05:09:11.486Z,1.80
2022-12-29T05:11:39.686Z,2.30
2022-12-29T05:14:08.070Z,2.73
2022-12-29T05:16:37.616Z,1.87
2022-12-29T05:19:05.877Z,2.20
2022-12-29T05:21:34.218Z,2.37
2022-12-29T05:24:02.379Z,2.30
2022-12-29T05:26:30.429Z,2.33
2022-12-29T05:28:58.758Z,2.80
2022-12-29T05:31:27.066Z,2.80
2022-12-29T05:33:56.667Z,2.00
2022-12-29T05:36:25.088Z,2.10
2022-12-29T05:38:53.324Z,2.23
2022-12-29T05:41:21.576Z,2.17
2022-12-29T05:43:49.910Z,2.43
2022-12-29T05:46:20.929Z,2.90
2022-12-29T05:48:49.164Z,2.87
2022-12-29T05:51:18.995Z,3.40
2022-12-29T05:53:47.130Z,3.17
2022-12-29T05:56:17.968Z,3.63
2022-12-29T05:58:46.773Z,3.40
2022-12-29T06:01:14.937Z,3.57
2022-12-29T06:03:47.887Z,3.57
2022-12-29T06:06:18.360Z,4.03
2022-12-29T06:08:47.399Z,5.73
2022-12-29T06:11:15.756Z,6.87
2022-12-29T06:13:44.084Z,8.00
2022-12-29T06:16:12.340Z,8.60
2022-12-29T06:18:40.575Z,10.50
2022-12-29T06:21:09.171Z,10.37
2022-12-29T06:23:38.733Z,10.60
2022-12-29T06:26:07.025Z,11.03
2022-12-29T06:28:35.860Z,12.60
2022-12-29T06:31:04.401Z,11.17
2022-12-29T06:33:32.821Z,9.33
2022-12-29T06:36:01.057Z,8.93
2022-12-29T06:38:29.670Z,10.93
2022-12-29T06:40:59.241Z,10.83
2022-12-29T06:43:27.464Z,10.70
2022-12-29T06:45:55.641Z,9.17
2022-12-29T06:48:23.960Z,8.90
2022-12-29T06:50:52.308Z,7.00
2022-12-29T06:53:20.470Z,5.97
2022-12-29T06:55:48.624Z,3.40
2022-12-29T06:58:18.423Z,2.97
2022-12-29T07:00:46.862Z,3.20
2022-12-29T07:03:15.101Z,3.67
2022-12-29T07:05:43.731Z,3.37
2022-12-29T07:08:11.991Z,3.73
2022-12-29T07:10:40.138Z,3.47
2022-12-29T07:13:09.439Z,3.50
2022-12-29T07:15:40.294Z,4.10
2022-12-29T07:18:08.494Z,4.67
2022-12-29T07:20:36.835Z,4.33
2022-12-29T07:23:05.016Z,5.23
2022-12-29T07:25:33.326Z,5.20
2022-12-29T07:28:04.274Z,5.17
2022-12-29T07:30:32.609Z,6.67
2022-12-29T07:33:02.461Z,7.37
2022-12-29T07:35:30.750Z,8.17
2022-12-29T07:37:58.978Z,6.97
2022-12-29T07:40:27.838Z,8.37
2022-12-29T07:42:55.996Z,8.40
2022-12-29T07:45:24.076Z,7.37
2022-12-29T07:47:52.714Z,7.60
2022-12-29T07:50:25.085Z,8.10
2022-12-29T07:52:53.425Z,7.33
2022-12-29T07:55:21.675Z,7.63
2022-12-29T07:57:49.920Z,5.80
2022-12-29T08:00:18.723Z,7.07
2022-12-29T08:02:47.139Z,7.43
2022-12-29T08:05:16.688Z,7.97
2022-12-29T08:07:47.747Z,7.60
2022-12-29T08:10:17.141Z,7.53
2022-12-29T08:12:45.901Z,7.07
2022-12-29T08:15:14.552Z,6.97
2022-12-29T08:17:42.676Z,8.17
2022-12-29T08:20:11.743Z,7.60
2022-12-29T08:22:39.877Z,7.90
2022-12-29T08:25:10.523Z,8.10
2022-12-29T08:27:39.032Z,7.70
2022-12-29T08:30:11.114Z,8.17
2022-12-29T08:32:41.063Z,8.03
2022-12-29T08:35:09.965Z,7.47
2022-12-29T08:37:38.396Z,7.13
2022-12-29T08:40:07.914Z,7.00
2022-12-29T08:42:37.507Z,7.27
2022-12-29T08:45:06.291Z,6.70
2022-12-29T08:47:34.519Z,6.53
2022-12-29T08:50:02.755Z,6.60
2022-12-29T08:52:30.956Z,6.53
2022-12-29T08:54:59.923Z,6.83
2022-12-29T08:57:28.231Z,6.93
2022-12-29T08:59:57.955Z,7.60
2022-12-29T09:02:26.291Z,6.77
2022-12-29T09:04:55.135Z,7.63
2022-12-29T09:07:23.414Z,7.17
2022-12-29T09:09:52.897Z,7.57
2022-12-29T09:12:21.564Z,7.93
2022-12-29T09:14:49.807Z,8.13
2022-12-29T09:17:37.062Z,8.60
2022-12-29T09:20:06.003Z,9.03
2022-12-29T09:22:34.162Z,10.30
2022-12-29T09:25:02.264Z,10.50
2022-12-29T09:27:31.139Z,9.90
2022-12-29T09:29:59.468Z,10.63
2022-12-29T09:32:33.558Z,12.93
2022-12-29T09:35:05.365Z,12.63
2022-12-29T09:37:33.640Z,11.00
2022-12-29T09:40:01.905Z,12.60
2022-12-29T09:42:37.321Z,12.80
2022-12-29T09:45:14.568Z,14.27
2022-12-29T09:47:46.247Z,13.97
2022-12-29T09:50:25.582Z,13.23
2022-12-29T09:53:01.405Z,12.20
2022-12-29T09:55:38.075Z,11.47
2022-12-29T09:58:13.015Z,7.10
2022-12-29T10:00:55.173Z,8.07
2022-12-29T10:03:30.292Z,10.47
2022-12-29T10:06:06.891Z,11.33
2022-12-29T10:08:42.235Z,14.77
2022-12-29T10:11:23.161Z,13.57
2022-12-29T10:14:13.820Z,13.03
2022-12-29T10:16:53.508Z,12.33
2022-12-29T10:19:47.350Z,12.03
2022-12-29T10:22:30.656Z,11.67
2022-12-29T10:24:59.192Z,11.40
2022-12-29T10:27:27.514Z,11.13
2022-12-29T10:29:58.172Z,10.23
2022-12-29T10:32:34.299Z,10.13
2022-12-29T10:35:13.646Z,10.30
2022-12-29T10:37:47.713Z,10.03
2022-12-29T10:40:22.760Z,9.67
2022-12-29T10:42:55.570Z,9.50
2022-12-29T10:45:26.853Z,8.60
2022-12-29T10:48:02.485Z,8.87
2022-12-29T10:50:32.153Z,8.77
2022-12-29T10:53:03.597Z,6.80
2022-12-29T10:55:36.819Z,7.77
2022-12-29T10:58:08.570Z,7.20
2022-12-29T11:00:36.777Z,6.50
2022-12-29T11:03:40.621Z,6.37
2022-12-29T11:06:14.994Z,5.77
2022-12-29T11:08:52.450Z,5.97
2022-12-29T11:11:27.749Z,6.00
2022-12-29T11:14:01.657Z,5.80
2022-12-29T11:16:32.946Z,5.33
2022-12-29T11:19:01.344Z,4.83
2022-12-29T11:21:35.065Z,5.03
2022-12-29T11:24:05.276Z,4.43
2022-12-29T11:26:35.394Z,4.93
2022-12-29T11:29:23.737Z,4.90
2022-12-29T11:31:55.088Z,5.90
2022-12-29T11:34:26.378Z,4.40
2022-12-29T11:37:02.514Z,5.20
2022-12-29T11:39:35.471Z,4.43
2022-12-29T11:42:04.963Z,5.03
2022-12-29T11:44:40.176Z,5.77
2022-12-29T11:47:13.793Z,4.70
2022-12-29T11:49:42.217Z,5.40
2022-12-29T11:52:12.288Z,5.47
2022-12-29T11:54:41.419Z,4.60
2022-12-29T11:57:15.752Z,6.10
2022-12-29T11:59:45.953Z,5.43
2022-12-29T12:02:27.229Z,5.47
2022-12-29T12:05:03.881Z,4.97
2022-12-29T12:07:41.562Z,6.10
2022-12-29T12:10:19.870Z,5.33
2022-12-29T12:12:56.110Z,4.90
2022-12-29T12:15:28.560Z,5.07
2022-12-29T12:18:02.641Z,4.67
2022-12-29T12:20:41.046Z,5.17
2022-12-29T12:23:22.791Z,5.30
2022-12-29T12:26:00.271Z,5.57
2022-12-29T12:28:39.030Z,5.20
2022-12-29T12:31:18.068Z,5.17
2022-12-29T12:33:53.037Z,5.47
2022-12-29T12:37:04.260Z,5.83
2022-12-29T12:39:44.573Z,4.50
2022-12-29T12:42:26.761Z,6.57
2022-12-29T12:45:24.298Z,4.60
2022-12-29T12:48:04.530Z,5.00
2022-12-29T12:50:55.130Z,5.70
2022-12-29T12:53:43.478Z,4.97
2022-12-29T12:56:31.245Z,5.77
2022-12-29T12:59:09.968Z,5.60
2022-12-29T13:01:49.193Z,5.20
2022-12-29T13:04:48.924Z,5.13
2022-12-29T13:07:27.792Z,5.33
2022-12-29T13:10:16.257Z,5.33
2022-12-29T13:12:52.310Z,5.40
2022-12-29T13:15:36.633Z,5.03
2022-12-29T13:18:14.195Z,5.57
2022-12-29T13:20:49.948Z,5.20
2022-12-29T13:23:26.885Z,5.60
2022-12-29T13:26:05.209Z,5.63
2022-12-29T13:28:40.938Z,5.00
2022-12-29T13:31:18.136Z,5.33
2022-12-29T13:33:55.878Z,5.77
2022-12-29T13:36:29.267Z,4.97
2022-12-29T13:39:06.337Z,4.57
2022-12-29T13:41:40.024Z,4.80
2022-12-29T13:44:12.893Z,5.43
2022-12-29T13:46:44.959Z,5.37
2022-12-29T13:49:17.878Z,6.00
2022-12-29T13:51:51.874Z,5.57
2022-12-29T13:54:30.188Z,5.97
2022-12-29T13:57:08.090Z,5.60
2022-12-29T13:59:46.775Z,6.03
2022-12-29T14:02:27.246Z,5.83
2022-12-29T14:05:01.448Z,5.93
2022-12-29T14:07:30.621Z,5.70
2022-12-29T14:10:00.056Z,6.93
2022-12-29T14:12:34.093Z,5.40
2022-12-29T14:15:22.230Z,5.67
2022-12-29T14:18:07.008Z,6.07
2022-12-29T14:20:36.412Z,6.33
2022-12-29T14:23:29.325Z,5.73
2022-12-29T14:26:00.014Z,5.70
2022-12-29T14:28:29.897Z,4.87
2022-12-29T14:31:00.892Z,6.00
2022-12-29T14:33:31.877Z,5.73
2022-12-29T14:36:21.255Z,6.00
2022-12-29T14:38:50.893Z,6.93
2022-12-29T14:41:32.817Z,7.07
2022-12-29T14:44:17.063Z,7.40
2022-12-29T14:46:57.694Z,7.40
2022-12-29T14:49:27.811Z,7.23
2022-12-29T14:52:06.446Z,6.83
2022-12-29T14:54:52.393Z,6.00
2022-12-29T14:57:34.889Z,6.00
2022-12-29T15:00:20.423Z,5.63
2022-12-29T15:03:06.717Z,6.33
2022-12-29T15:05:39.848Z,4.87
2022-12-29T15:08:09.450Z,5.20
2022-12-29T15:10:43.723Z,4.97
2022-12-29T15:13:20.386Z,5.10
2022-12-29T15:15:48.809Z,4.27
2022-12-29T15:18:25.911Z,4.50
2022-12-29T15:20:57.496Z,4.20
2022-12-29T15:23:26.472Z,4.27
2022-12-29T15:25:57.882Z,3.70
2022-12-29T15:28:27.861Z,3.63
2022-12-29T15:30:58.101Z,3.90
2022-12-29T15:33:30.039Z,3.97
2022-12-29T15:35:59.760Z,4.07
2022-12-29T15:38:34.512Z,3.60
2022-12-29T15:41:09.058Z,3.57
2022-12-29T15:43:53.781Z,3.37
2022-12-29T15:46:22.362Z,5.53
2022-12-29T15:48:52.125Z,2.47
2022-12-29T15:51:23.713Z,2.83
2022-12-29T15:53:54.040Z,2.90
2022-12-29T15:56:22.502Z,3.50
2022-12-29T15:58:53.116Z,3.10
2022-12-29T16:01:25.918Z,3.23
2022-12-29T16:03:56.653Z,3.40
2022-12-29T16:06:33.647Z,3.70
2022-12-29T16:09:04.737Z,3.53
2022-12-29T16:11:37.297Z,3.47
2022-12-29T16:14:11.764Z,3.93
2022-12-29T16:16:42.881Z,3.87
2022-12-29T16:19:26.495Z,4.97
2022-12-29T16:21:54.917Z,3.60
2022-12-29T16:24:26.074Z,4.27
2022-12-29T16:27:08.990Z,4.27
2022-12-29T16:29:37.918Z,4.30
2022-12-29T16:32:26.328Z,4.90
2022-12-29T16:35:11.983Z,4.37
2022-12-29T16:37:40.680Z,4.73
2022-12-29T16:40:31.479Z,4.60
2022-12-29T16:43:01.850Z,4.60
2022-12-29T16:46:08.805Z,5.03
2022-12-29T16:48:40.419Z,5.03
2022-12-29T16:51:18.965Z,4.33
2022-12-29T16:53:52.327Z,4.70
2022-12-29T16:56:23.404Z,4.70
2022-12-29T16:58:55.408Z,4.30
2022-12-29T17:01:24.041Z,4.60
2022-12-29T17:03:55.771Z,4.67
2022-12-29T17:06:25.857Z,4.57
2022-12-29T17:08:55.277Z,4.30
2022-12-29T17:11:44.208Z,4.27
2022-12-29T17:14:41.727Z,4.90
2022-12-29T17:17:16.939Z,4.53
2022-12-29T17:19:49.816Z,4.50
2022-12-29T17:22:25.273Z,4.57
2022-12-29T17:24:54.123Z,3.83
2022-12-29T17:27:33.471Z,4.47
2022-12-29T17:30:05.767Z,4.60
2022-12-29T17:32:34.815Z,5.00
2022-12-29T17:35:04.209Z,3.90
2022-12-29T17:37:37.323Z,4.43
2022-12-29T17:40:08.788Z,3.77
2022-12-29T17:42:43.732Z,4.53
2022-12-29T17:45:17.031Z,4.00
2022-12-29T17:47:45.746Z,4.50
2022-12-29T17:50:15.878Z,3.90
2022-12-29T17:52:49.509Z,3.40
2022-12-29T17:55:19.933Z,4.47
2022-12-29T17:57:48.768Z,3.93
2022-12-29T18:00:18.821Z,4.20
2022-12-29T18:02:47.433Z,3.67
2022-12-29T18:05:21.152Z,4.07
2022-12-29T18:07:52.485Z,4.17
2022-12-29T18:10:21.427Z,5.20
2022-12-29T18:12:51.199Z,4.43
2022-12-29T18:15:23.171Z,4.23
2022-12-29T18:17:56.813Z,4.07
2022-12-29T18:20:25.532Z,4.50
2022-12-29T18:22:55.109Z,4.20
2022-12-29T18:25:26.565Z,4.80
2022-12-29T18:27:55.243Z,4.60
2022-12-29T18:30:25.980Z,3.67
2022-12-29T18:32:54.679Z,3.87
2022-12-29T18:35:30.480Z,4.17
2022-12-29T18:38:00.062Z,4.70
2022-12-29T18:40:29.684Z,3.90
2022-12-29T18:42:57.862Z,3.97
2022-12-29T18:45:26.736Z,4.07
2022-12-29T18:47:55.571Z,4.00
2022-12-29T18:50:23.844Z,3.97
2022-12-29T18:52:52.185Z,3.73
2022-12-29T18:55:24.312Z,4.00
2022-12-29T18:57:52.791Z,4.10
2022-12-29T19:00:22.943Z,3.90
2022-12-29T19:02:52.875Z,4.93
2022-12-29T19:05:24.015Z,4.43
2022-12-29T19:07:52.655Z,4.30
2022-12-29T19:10:23.981Z,4.50
2022-12-29T19:12:52.980Z,3.97
2022-12-29T19:15:24.961Z,4.27
2022-12-29T19:18:32.384Z,4.80
2022-12-29T19:20:45.336Z,4.00
2022-12-29T19:23:16.778Z,3.73
2022-12-29T19:25:47.700Z,3.87
2022-12-29T19:28:20.288Z,3.73
2022-12-29T19:30:52.456Z,3.50
2022-12-29T19:33:22.049Z,3.20
2022-12-29T19:35:50.884Z,3.17
2022-12-29T19:38:20.869Z,3.50
2022-12-29T19:40:53.013Z,2.60
2022-12-29T19:43:21.302Z,3.13
2022-12-29T19:45:51.445Z,3.03
2022-12-29T19:48:21.717Z,3.03
2022-12-29T19:50:50.105Z,3.30
2022-12-29T19:53:18.790Z,3.10
2022-12-29T19:55:48.416Z,2.63
2022-12-29T19:58:19.183Z,2.73
2022-12-29T20:00:47.431Z,2.63
2022-12-29T20:03:15.918Z,2.20
2022-12-29T20:05:50.999Z,2.53
2022-12-29T20:08:19.568Z,2.70
2022-12-29T20:10:57.453Z,2.50
2022-12-29T20:13:27.436Z,2.57
2022-12-29T20:16:00.375Z,2.13
2022-12-29T20:18:31.725Z,2.80
2022-12-29T20:21:04.153Z,2.57
2022-12-29T20:23:32.990Z,2.80
2022-12-29T20:26:02.276Z,2.60
2022-12-29T20:28:32.329Z,2.27
2022-12-29T20:31:04.110Z,2.10
2022-12-29T20:33:33.542Z,2.30
2022-12-29T20:36:07.654Z,2.60
2022-12-29T20:38:36.586Z,2.60
2022-12-29T20:41:05.620Z,3.10
2022-12-29T20:43:35.358Z,3.07
2022-12-29T20:46:03.797Z,2.60
2022-12-29T20:48:32.207Z,2.80
2022-12-29T20:51:00.655Z,2.60
2022-12-29T20:53:29.265Z,2.77
2022-12-29T20:56:02.695Z,2.43
2022-12-29T20:58:31.710Z,2.57
2022-12-29T21:01:05.318Z,2.07
2022-12-29T21:03:34.340Z,2.13
2022-12-29T21:06:02.741Z,2.23
2022-12-29T21:08:31.256Z,1.97
2022-12-29T21:11:00.128Z,2.20
2022-12-29T21:13:28.647Z,2.10
2022-12-29T21:15:58.328Z,2.27
2022-12-29T21:18:28.266Z,3.03
2022-12-29T21:20:57.875Z,2.57
2022-12-29T21:23:26.628Z,2.73
2022-12-29T21:25:55.325Z,2.40
2022-12-29T21:28:25.310Z,2.50
2022-12-29T21:30:54.171Z,2.73
2022-12-29T21:33:23.179Z,2.77
2022-12-29T21:35:52.959Z,2.50
2022-12-29T21:38:21.511Z,2.90
2022-12-29T21:40:49.682Z,3.47
2022-12-29T21:43:18.270Z,2.70
2022-12-29T21:45:50.032Z,3.07
2022-12-29T21:48:25.151Z,3.20
2022-12-29T21:51:14.286Z,2.67
2022-12-29T21:53:44.186Z,2.50
2022-12-29T21:56:14.230Z,3.00
2022-12-29T21:59:01.928Z,3.60
2022-12-29T22:01:49.636Z,3.73
2022-12-29T22:04:37.298Z,3.53
2022-12-29T22:07:26.358Z,3.83
2022-12-29T22:10:12.127Z,3.70
2022-12-29T22:12:58.123Z,3.77
2022-12-29T22:15:26.867Z,3.33
2022-12-29T22:17:56.158Z,3.93
2022-12-29T22:20:26.857Z,3.87
2022-12-29T22:22:57.059Z,4.37
2022-12-29T22:25:25.468Z,4.23
2022-12-29T22:27:58.991Z,4.97
2022-12-29T22:30:28.616Z,4.53
2022-12-29T22:32:59.093Z,4.87
2022-12-29T22:35:27.212Z,4.50
2022-12-29T22:37:56.938Z,5.70
2022-12-29T22:40:25.246Z,5.57
2022-12-29T22:42:53.502Z,4.60
2022-12-29T22:45:22.015Z,5.10
2022-12-29T22:47:50.123Z,6.07
2022-12-29T22:50:18.496Z,5.20
2022-12-29T22:52:46.948Z,5.07
2022-12-29T22:55:16.813Z,5.60
2022-12-29T22:57:45.000Z,5.00
2022-12-29T23:00:13.618Z,5.03
2022-12-29T23:02:41.944Z,5.10
2022-12-29T23:05:11.554Z,5.00
2022-12-29T23:07:39.841Z,5.00
2022-12-29T23:10:08.810Z,4.77
2022-12-29T23:12:38.507Z,4.83
2022-12-29T23:15:07.838Z,5.30
2022-12-29T23:17:36.720Z,4.80
2022-12-29T23:20:06.123Z,5.20
2022-12-29T23:22:34.552Z,5.07
2022-12-29T23:25:02.712Z,5.00
2022-12-29T23:27:31.006Z,5.80
2022-12-29T23:30:02.919Z,4.23
2022-12-29T23:32:31.057Z,4.97
2022-12-29T23:34:59.225Z,4.90
2022-12-29T23:37:27.349Z,4.73
2022-12-29T23:39:55.521Z,4.50
2022-12-29T23:42:23.741Z,4.40
2022-12-29T23:44:52.087Z,4.50
2022-12-29T23:47:21.661Z,4.43
2022-12-29T23:49:49.894Z,4.20
2022-12-29T23:52:18.297Z,4.63
2022-12-29T23:54:46.607Z,4.90
2022-12-29T23:57:14.757Z,5.17
2022-12-29T23:59:43.041Z,4.77
